createdAt,value
2023-03-27T00:01:13.355Z,6.43
2023-03-27T00:03:41.232Z,6.39
2023-03-27T00:06:17.557Z,6.42
2023-03-27T00:08:46.554Z,6.35
2023-03-27T00:11:15.298Z,6.36
2023-03-27T00:13:49.752Z,6.43
2023-03-27T00:16:22.027Z,6.45
2023-03-27T00:18:49.180Z,6.37
2023-03-27T00:21:16.649Z,6.43
2023-03-27T00:23:43.539Z,6.48
2023-03-27T00:26:12.254Z,6.41
2023-03-27T00:28:39.693Z,6.41
2023-03-27T00:31:14.105Z,6.39
2023-03-27T00:33:42.477Z,6.47
2023-03-27T00:36:10.397Z,6.29
2023-03-27T00:38:39.719Z,6.27
2023-03-27T00:41:07.659Z,6.31
2023-03-27T00:43:36.849Z,6.37
2023-03-27T00:46:15.868Z,6.28
2023-03-27T00:48:47.211Z,6.26
2023-03-27T00:51:16.003Z,6.31
2023-03-27T00:53:44.461Z,6.37
2023-03-27T00:56:11.962Z,6.25
2023-03-27T00:58:46.777Z,6.31
2023-03-27T01:01:15.985Z,6.45
2023-03-27T01:03:47.268Z,6.29
2023-03-27T01:06:17.166Z,6.23
2023-03-27T01:08:46.899Z,6.25
2023-03-27T01:11:39.230Z,6.18
2023-03-27T01:14:24.373Z,6.12
2023-03-27T01:17:00.417Z,6.17
2023-03-27T01:19:50.027Z,6.14
2023-03-27T01:22:29.514Z,6.20
2023-03-27T01:25:17.661Z,6.21
2023-03-27T01:28:10.710Z,6.31
2023-03-27T01:30:50.677Z,6.13
2023-03-27T01:33:41.423Z,6.01
2023-03-27T01:36:56.015Z,6.02
2023-03-27T01:39:47.469Z,5.94
2023-03-27T01:42:31.503Z,5.90
2023-03-27T01:45:16.194Z,5.92
2023-03-27T01:47:54.253Z,5.85
2023-03-27T01:50:28.840Z,5.92
2023-03-27T01:53:02.284Z,5.79
2023-03-27T01:55:34.664Z,5.90
2023-03-27T01:58:09.378Z,5.91
2023-03-27T02:00:52.123Z,5.89
2023-03-27T02:03:22.789Z,5.98
2023-03-27T02:05:59.022Z,6.00
2023-03-27T02:08:34.232Z,5.90
2023-03-27T02:11:17.664Z,5.90
2023-03-27T02:13:54.973Z,6.08
2023-03-27T02:16:33.989Z,6.08
2023-03-27T02:19:05.033Z,6.09
2023-03-27T02:21:32.893Z,6.13
2023-03-27T02:24:02.564Z,6.03
2023-03-27T02:26:30.519Z,5.99
2023-03-27T02:29:16.001Z,5.99
2023-03-27T02:31:58.997Z,5.96
2023-03-27T02:34:32.275Z,5.84
2023-03-27T02:37:09.463Z,5.66
2023-03-27T02:40:14.024Z,5.84
2023-03-27T02:43:03.055Z,5.82
2023-03-27T02:45:49.001Z,5.69
2023-03-27T02:48:31.847Z,5.76
2023-03-27T02:51:07.690Z,5.87
2023-03-27T02:53:45.155Z,5.86
2023-03-27T02:56:15.289Z,5.72
2023-03-27T02:58:50.175Z,5.81
2023-03-27T03:01:32.619Z,5.68
2023-03-27T03:04:16.856Z,5.53
2023-03-27T03:07:06.953Z,5.53
2023-03-27T03:09:34.782Z,5.51
2023-03-27T03:12:09.067Z,5.49
2023-03-27T03:14:46.020Z,5.55
2023-03-27T03:17:14.099Z,5.39
2023-03-27T03:19:41.304Z,5.28
2023-03-27T03:22:09.022Z,5.39
2023-03-27T03:24:37.627Z,5.27
2023-03-27T03:27:05.893Z,5.05
2023-03-27T03:29:44.323Z,5.08
2023-03-27T03:32:16.929Z,5.06
2023-03-27T03:34:48.344Z,4.84
2023-03-27T03:37:16.096Z,5.12
2023-03-27T03:39:43.085Z,5.00
2023-03-27T03:42:10.269Z,4.98
2023-03-27T03:44:51.672Z,4.99
2023-03-27T03:47:20.696Z,5.11
2023-03-27T03:49:47.913Z,5.14
2023-03-27T03:52:14.944Z,5.06
2023-03-27T03:54:42.093Z,5.31
2023-03-27T03:57:09.090Z,5.55
2023-03-27T03:59:36.375Z,5.24
2023-03-27T04:02:30.809Z,5.52
2023-03-27T04:05:08.727Z,5.57
2023-03-27T04:07:37.322Z,5.27
2023-03-27T04:10:18.989Z,5.40
2023-03-27T04:12:47.694Z,5.56
2023-03-27T04:15:19.255Z,5.50
2023-03-27T04:18:09.297Z,5.45
2023-03-27T04:20:38.307Z,5.61
2023-03-27T04:23:10.295Z,5.58
2023-03-27T04:25:40.388Z,5.44
2023-03-27T04:28:10.475Z,5.69
2023-03-27T04:30:45.023Z,6.12
2023-03-27T04:33:23.100Z,6.19
2023-03-27T04:36:06.396Z,6.35
2023-03-27T04:38:59.858Z,6.63
2023-03-27T04:41:29.802Z,6.67
2023-03-27T04:43:57.128Z,7.30
2023-03-27T04:46:24.033Z,7.96
2023-03-27T04:48:57.723Z,9.07
2023-03-27T04:51:46.322Z,8.89
2023-03-27T04:54:16.955Z,9.87
2023-03-27T04:56:46.662Z,10.87
2023-03-27T04:59:15.741Z,11.31
2023-03-27T05:01:46.968Z,11.34
2023-03-27T05:04:26.630Z,11.47
2023-03-27T05:07:08.059Z,11.35
2023-03-27T05:09:35.215Z,11.64
2023-03-27T05:12:02.070Z,11.15
2023-03-27T05:14:34.726Z,11.11
2023-03-27T05:17:02.452Z,11.74
2023-03-27T05:19:29.652Z,12.10
2023-03-27T05:21:59.414Z,13.28
2023-03-27T05:24:27.304Z,14.79
2023-03-27T05:26:54.260Z,15.68
2023-03-27T05:29:21.445Z,15.76
2023-03-27T05:32:01.215Z,16.69
2023-03-27T05:34:54.736Z,18.05
2023-03-27T05:37:24.575Z,18.14
2023-03-27T05:40:15.321Z,16.20
2023-03-27T05:42:46.382Z,14.72
2023-03-27T05:45:14.506Z,13.17
2023-03-27T05:47:53.856Z,12.67
2023-03-27T05:50:25.620Z,12.18
2023-03-27T05:52:58.739Z,11.57
2023-03-27T05:55:32.822Z,11.45
2023-03-27T05:58:00.586Z,11.57
2023-03-27T06:00:31.972Z,12.35
2023-03-27T06:03:01.379Z,12.79
2023-03-27T06:05:46.709Z,13.12
2023-03-27T06:08:14.070Z,12.75
2023-03-27T06:10:44.024Z,12.60
2023-03-27T06:13:24.227Z,11.18
2023-03-27T06:16:03.616Z,10.64
2023-03-27T06:18:56.530Z,10.81
2023-03-27T06:21:25.027Z,9.90
2023-03-27T06:23:58.000Z,9.78
2023-03-27T06:26:28.215Z,10.39
2023-03-27T06:28:57.887Z,10.53
2023-03-27T06:31:27.273Z,10.52
2023-03-27T06:34:08.718Z,11.19
2023-03-27T06:36:55.959Z,11.94
2023-03-27T06:39:22.884Z,12.66
2023-03-27T06:41:52.056Z,13.59
2023-03-27T06:44:51.729Z,14.25
2023-03-27T06:47:51.650Z,15.44
2023-03-27T06:50:39.465Z,15.61
2023-03-27T06:53:19.612Z,15.39
2023-03-27T06:55:51.352Z,15.73
2023-03-27T06:58:19.387Z,18.03
2023-03-27T07:00:49.808Z,19.33
2023-03-27T07:03:18.070Z,19.80
2023-03-27T07:06:03.949Z,20.56
2023-03-27T07:08:42.398Z,21.23
2023-03-27T07:11:12.244Z,20.60
2023-03-27T07:14:01.429Z,20.86
2023-03-27T07:16:30.370Z,21.39
2023-03-27T07:18:58.915Z,20.41
2023-03-27T07:21:41.566Z,20.60
2023-03-27T07:24:15.058Z,22.15
2023-03-27T07:40:09.165Z,17.03
2023-03-27T07:42:37.583Z,15.39
2023-03-27T07:45:07.880Z,15.54
2023-03-27T07:47:34.812Z,16.00
2023-03-27T07:50:01.769Z,16.02
2023-03-27T07:52:29.609Z,17.29
2023-03-27T07:54:59.102Z,18.97
2023-03-27T07:57:54.935Z,21.34
2023-03-27T08:00:25.982Z,21.11
2023-03-27T08:03:07.398Z,20.31
2023-03-27T08:05:35.458Z,21.15
2023-03-27T08:08:12.778Z,21.01
2023-03-27T08:10:47.407Z,21.06
2023-03-27T08:13:16.962Z,22.52
2023-03-27T08:15:44.033Z,22.48
2023-03-27T08:18:21.130Z,21.33
2023-03-27T08:20:48.497Z,20.85
2023-03-27T08:23:15.382Z,18.84
2023-03-27T08:26:01.208Z,18.83
2023-03-27T08:28:36.205Z,18.64
2023-03-27T08:31:13.053Z,19.27
2023-03-27T08:33:42.114Z,20.45
2023-03-27T08:36:17.046Z,20.64
2023-03-27T08:38:47.858Z,20.17
2023-03-27T08:41:33.834Z,19.01
2023-03-27T08:44:16.387Z,20.38
2023-03-27T08:46:46.952Z,20.49
2023-03-27T08:49:19.583Z,20.44
2023-03-27T08:52:15.964Z,21.30
2023-03-27T08:54:51.497Z,21.82
2023-03-27T08:57:24.973Z,21.55
2023-03-27T09:00:01.265Z,21.27
2023-03-27T09:03:12.167Z,19.36
2023-03-27T09:05:56.809Z,17.73
2023-03-27T09:08:46.500Z,19.74
2023-03-27T09:11:21.811Z,19.20
2023-03-27T09:13:57.988Z,18.86
2023-03-27T09:16:31.325Z,17.87
2023-03-27T09:19:12.436Z,16.29
2023-03-27T09:22:04.450Z,16.09
2023-03-27T09:24:54.299Z,15.01
2023-03-27T09:27:45.081Z,14.65
2023-03-27T09:30:37.627Z,17.12
2023-03-27T09:33:27.763Z,17.08
2023-03-27T09:35:56.558Z,16.91
2023-03-27T09:38:38.215Z,16.86
2023-03-27T09:41:16.415Z,17.36
2023-03-27T09:44:01.139Z,18.39
2023-03-27T09:46:29.382Z,19.70
2023-03-27T09:49:27.437Z,19.59
2023-03-27T09:52:02.649Z,21.32
2023-03-27T09:54:54.336Z,19.75
2023-03-27T09:57:33.989Z,20.17
2023-03-27T10:00:25.145Z,22.17
2023-03-27T10:03:14.042Z,22.93
2023-03-27T10:05:47.048Z,23.16
2023-03-27T10:08:37.915Z,24.00
2023-03-27T10:11:26.652Z,25.07
2023-03-27T10:14:01.804Z,25.84
2023-03-27T10:16:30.037Z,24.40
2023-03-27T10:19:05.226Z,23.95
2023-03-27T10:21:44.229Z,25.31
2023-03-27T10:24:27.955Z,23.80
2023-03-27T10:27:05.138Z,20.80
2023-03-27T10:29:35.116Z,21.78
2023-03-27T10:32:05.327Z,20.42
2023-03-27T10:35:03.292Z,18.52
2023-03-27T10:37:51.520Z,17.21
2023-03-27T10:40:39.321Z,17.35
2023-03-27T10:43:38.036Z,21.22
2023-03-27T10:46:17.325Z,22.04
2023-03-27T10:49:08.657Z,22.38
2023-03-27T10:51:54.331Z,22.45
2023-03-27T10:54:54.166Z,21.20
2023-03-27T10:57:34.235Z,20.57
2023-03-27T11:00:22.713Z,20.80
2023-03-27T11:03:30.825Z,21.21
2023-03-27T11:06:06.855Z,19.47
2023-03-27T11:08:53.158Z,19.63
2023-03-27T11:11:30.286Z,16.49
2023-03-27T11:14:03.899Z,15.96
2023-03-27T11:16:37.796Z,16.58
2023-03-27T11:19:54.803Z,16.40
2023-03-27T11:22:33.246Z,16.49
2023-03-27T11:25:18.534Z,15.28
2023-03-27T11:27:56.087Z,15.13
2023-03-27T11:30:33.354Z,15.67
2023-03-27T11:33:01.906Z,16.44
2023-03-27T11:35:37.077Z,16.89
2023-03-27T11:38:38.695Z,16.24
2023-03-27T11:41:08.196Z,15.43
2023-03-27T11:43:39.246Z,14.67
2023-03-27T11:46:54.780Z,14.20
2023-03-27T11:49:47.934Z,13.61
2023-03-27T11:52:36.531Z,13.77
2023-03-27T11:55:07.671Z,13.69
2023-03-27T11:58:12.150Z,13.51
2023-03-27T12:00:55.914Z,13.17
2023-03-27T12:04:03.618Z,13.17
2023-03-27T12:10:28.381Z,13.04
2023-03-27T12:13:41.913Z,13.07
2023-03-27T12:16:29.714Z,13.15
2023-03-27T12:19:29.680Z,13.13
2023-03-27T12:22:27.889Z,13.46
2023-03-27T12:25:20.277Z,13.31
2023-03-27T12:28:48.357Z,13.26
2023-03-27T12:32:03.637Z,13.11
2023-03-27T12:34:54.424Z,13.03
2023-03-27T12:37:31.067Z,13.14
2023-03-27T12:40:00.767Z,13.14
2023-03-27T12:42:49.940Z,12.98
2023-03-27T12:45:19.654Z,13.09
2023-03-27T12:48:26.167Z,13.23
2023-03-27T12:50:53.687Z,13.33
2023-03-27T12:53:41.136Z,13.45
2023-03-27T12:56:13.385Z,13.94
2023-03-27T12:58:41.543Z,13.69
2023-03-27T13:01:26.601Z,13.57
2023-03-27T13:04:24.455Z,12.99
2023-03-27T13:07:25.380Z,12.66
2023-03-27T13:10:17.251Z,12.91
2023-03-27T13:12:55.912Z,13.27
2023-03-27T13:15:38.041Z,13.12
2023-03-27T13:18:07.230Z,13.00
2023-03-27T13:20:45.603Z,12.94
2023-03-27T13:23:40.744Z,12.72
2023-03-27T13:26:25.347Z,12.64
2023-03-27T13:28:56.549Z,12.61
2023-03-27T13:31:47.236Z,12.59
2023-03-27T13:34:27.009Z,12.49
2023-03-27T13:37:12.112Z,12.71
2023-03-27T13:39:47.376Z,13.03
2023-03-27T13:42:27.944Z,12.88
2023-03-27T13:44:58.032Z,13.13
2023-03-27T13:47:46.493Z,13.17
2023-03-27T13:50:34.988Z,13.33
2023-03-27T13:53:08.110Z,13.16
2023-03-27T13:56:37.159Z,13.38
2023-03-27T13:59:52.278Z,13.50
2023-03-27T14:02:54.233Z,13.51
2023-03-27T14:05:48.162Z,13.28
2023-03-27T14:08:21.651Z,13.11
2023-03-27T14:11:24.967Z,13.09
2023-03-27T14:14:18.758Z,12.78
2023-03-27T14:17:11.267Z,12.60
2023-03-27T14:20:06.869Z,12.70
2023-03-27T14:23:14.209Z,12.87
2023-03-27T14:26:01.951Z,12.64
2023-03-27T14:28:42.380Z,12.51
2023-03-27T14:31:18.955Z,12.48
2023-03-27T14:34:04.314Z,12.40
2023-03-27T14:36:34.756Z,12.31
2023-03-27T14:39:31.451Z,12.26
2023-03-27T14:42:16.980Z,12.29
2023-03-27T14:44:48.491Z,12.08
2023-03-27T14:47:18.751Z,12.09
2023-03-27T14:49:50.733Z,12.15
2023-03-27T14:52:37.820Z,11.99
2023-03-27T14:55:32.475Z,12.08
2023-03-27T14:58:19.530Z,12.12
2023-03-27T15:00:54.809Z,11.98
2023-03-27T15:03:26.273Z,11.91
2023-03-27T15:06:02.253Z,11.78
2023-03-27T15:08:39.825Z,11.66
2023-03-27T15:11:21.747Z,11.60
2023-03-27T15:13:56.325Z,11.55
2023-03-27T15:16:35.761Z,11.58
2023-03-27T15:19:12.400Z,11.50
2023-03-27T15:22:03.952Z,11.48
2023-03-27T15:24:43.561Z,11.36
2023-03-27T15:27:32.886Z,11.32
2023-03-27T15:30:03.859Z,11.28
2023-03-27T15:32:42.731Z,11.20
2023-03-27T15:35:18.279Z,11.14
2023-03-27T15:37:45.546Z,11.05
2023-03-27T15:40:15.759Z,10.94
2023-03-27T15:42:54.396Z,10.86
2023-03-27T15:45:24.289Z,10.75
2023-03-27T15:48:01.120Z,10.67
2023-03-27T15:50:28.198Z,10.62
2023-03-27T15:52:58.304Z,10.60
2023-03-27T15:55:44.336Z,10.62
2023-03-27T15:58:24.655Z,10.57
2023-03-27T16:00:58.157Z,10.51
2023-03-27T16:03:27.556Z,10.45
2023-03-27T16:05:58.373Z,10.40
2023-03-27T16:08:32.659Z,10.40
2023-03-27T16:11:00.621Z,10.36
2023-03-27T16:13:34.846Z,10.32
2023-03-27T16:16:20.849Z,10.24
2023-03-27T16:18:49.469Z,10.22
2023-03-27T16:21:16.389Z,10.17
2023-03-27T16:23:44.366Z,10.16
2023-03-27T16:26:21.374Z,10.15
2023-03-27T16:28:48.227Z,10.18
2023-03-27T16:31:18.205Z,10.22
2023-03-27T16:33:46.367Z,10.13
2023-03-27T16:36:16.134Z,10.19
2023-03-27T16:38:44.012Z,10.23
2023-03-27T16:41:15.919Z,10.30
2023-03-27T16:43:43.877Z,10.39
2023-03-27T16:46:18.839Z,10.43
2023-03-27T16:48:45.720Z,10.46
2023-03-27T16:51:12.635Z,10.50
2023-03-27T16:53:39.592Z,10.49
2023-03-27T16:56:07.451Z,10.46
2023-03-27T16:58:34.310Z,10.48
2023-03-27T17:01:01.612Z,10.55
2023-03-27T17:03:28.466Z,10.57
2023-03-27T17:06:03.130Z,10.54
2023-03-27T17:08:33.076Z,10.53
2023-03-27T17:11:08.523Z,10.47
2023-03-27T17:13:36.732Z,10.44
2023-03-27T17:16:05.366Z,10.46
2023-03-27T17:18:34.079Z,10.52
2023-03-27T17:21:00.964Z,10.56
2023-03-27T17:23:27.939Z,10.65
2023-03-27T17:25:55.030Z,10.72
2023-03-27T17:28:22.206Z,10.71
2023-03-27T17:30:57.044Z,10.60
2023-03-27T17:33:30.650Z,10.70
2023-03-27T17:35:58.024Z,10.60
2023-03-27T17:38:25.096Z,10.61
2023-03-27T17:40:52.409Z,10.30
2023-03-27T17:43:19.431Z,10.46
2023-03-27T17:45:46.385Z,10.48
2023-03-27T17:48:13.518Z,10.21
2023-03-27T17:50:40.586Z,10.39
2023-03-27T17:53:08.123Z,10.46
2023-03-27T17:55:37.210Z,10.01
2023-03-27T17:58:09.336Z,10.28
2023-03-27T18:00:38.575Z,10.33
2023-03-27T18:03:06.730Z,10.43
2023-03-27T18:05:41.529Z,10.66
2023-03-27T18:08:10.927Z,10.50
2023-03-27T18:10:44.021Z,10.60
2023-03-27T18:13:11.618Z,10.67
2023-03-27T18:15:40.911Z,10.59
2023-03-27T18:18:08.441Z,10.77
2023-03-27T18:20:35.864Z,10.73
2023-03-27T18:23:03.151Z,10.76
2023-03-27T18:25:30.460Z,10.83
2023-03-27T18:27:57.536Z,10.82
2023-03-27T18:30:24.582Z,10.89
2023-03-27T18:32:51.531Z,10.91
2023-03-27T18:35:20.371Z,10.90
2023-03-27T18:37:47.544Z,10.90
2023-03-27T18:40:17.094Z,10.81
2023-03-27T18:42:44.163Z,10.83
2023-03-27T18:45:13.206Z,10.80
2023-03-27T18:47:41.870Z,10.76
2023-03-27T18:50:13.759Z,10.73
2023-03-27T18:52:41.301Z,10.70
2023-03-27T18:55:09.594Z,10.58
2023-03-27T18:57:36.582Z,10.47
2023-03-27T19:00:07.430Z,10.50
2023-03-27T19:02:36.422Z,10.53
2023-03-27T19:05:04.448Z,10.64
2023-03-27T19:07:31.473Z,10.67
2023-03-27T19:09:58.856Z,10.72
2023-03-27T19:12:36.703Z,10.84
2023-03-27T19:15:33.808Z,10.92
2023-03-27T19:18:19.127Z,11.02
2023-03-27T19:21:06.061Z,11.05
2023-03-27T19:24:01.808Z,11.08
2023-03-27T19:26:35.547Z,11.14
2023-03-27T19:41:52.019Z,10.58
2023-03-27T19:44:21.198Z,10.50
2023-03-27T19:46:48.251Z,10.58
2023-03-27T19:49:16.322Z,10.48
2023-03-27T19:51:48.763Z,10.41
2023-03-27T19:54:16.270Z,10.33
2023-03-27T19:56:43.354Z,10.19
2023-03-27T19:59:15.328Z,10.23
2023-03-27T20:01:51.328Z,10.11
2023-03-27T20:04:18.461Z,10.01
2023-03-27T20:06:47.050Z,10.00
2023-03-27T20:09:14.730Z,9.87
2023-03-27T20:11:41.973Z,9.85
2023-03-27T20:14:11.919Z,9.77
2023-03-27T20:16:39.495Z,9.72
2023-03-27T20:19:06.944Z,9.73
2023-03-27T20:21:41.068Z,9.73
2023-03-27T20:24:13.817Z,9.69
2023-03-27T20:26:48.502Z,9.71
2023-03-27T20:29:23.854Z,9.59
2023-03-27T20:31:50.984Z,9.55
2023-03-27T20:34:19.747Z,9.52
2023-03-27T20:36:47.548Z,9.49
2023-03-27T20:39:28.422Z,9.51
2023-03-27T20:41:59.192Z,9.53
2023-03-27T20:44:35.261Z,9.50
2023-03-27T20:47:21.428Z,9.51
2023-03-27T20:49:48.484Z,9.49
2023-03-27T20:52:19.755Z,9.57
2023-03-27T20:54:48.055Z,9.51
2023-03-27T20:57:17.565Z,9.57
2023-03-27T20:59:46.986Z,9.56
2023-03-27T21:02:19.490Z,9.54
2023-03-27T21:04:47.527Z,9.50
2023-03-27T21:07:16.000Z,9.57
2023-03-27T21:09:45.685Z,9.51
2023-03-27T21:12:12.863Z,9.52
2023-03-27T21:14:39.754Z,9.49
2023-03-27T21:17:06.637Z,9.43
2023-03-27T21:19:33.400Z,9.49
2023-03-27T21:22:00.495Z,9.53
2023-03-27T21:24:27.366Z,9.47
2023-03-27T21:26:54.364Z,9.45
2023-03-27T21:29:21.446Z,9.51
2023-03-27T21:31:48.453Z,9.46
2023-03-27T21:34:15.584Z,9.46
2023-03-27T21:36:42.516Z,9.57
2023-03-27T21:39:10.033Z,9.48
2023-03-27T21:41:36.956Z,9.48
2023-03-27T21:44:03.901Z,9.57
2023-03-27T21:46:30.857Z,9.48
2023-03-27T21:48:57.802Z,9.43
2023-03-27T21:51:24.704Z,9.47
2023-03-27T21:53:53.178Z,9.31
2023-03-27T21:56:20.099Z,9.26
2023-03-27T21:58:46.948Z,9.32
2023-03-27T22:01:13.972Z,9.22
2023-03-27T22:03:40.794Z,9.20
2023-03-27T22:06:12.913Z,9.22
2023-03-27T22:08:42.014Z,9.14
2023-03-27T22:11:10.220Z,9.14
2023-03-27T22:13:38.249Z,9.17
2023-03-27T22:16:13.930Z,9.07
2023-03-27T22:18:41.410Z,9.10
2023-03-27T22:21:28.921Z,9.24
2023-03-27T22:23:57.713Z,9.24
2023-03-27T22:26:31.206Z,9.21
2023-03-27T22:28:58.270Z,9.16
2023-03-27T22:31:27.154Z,9.19
2023-03-27T22:33:54.092Z,9.13
2023-03-27T22:36:21.332Z,9.12
2023-03-27T22:38:48.829Z,9.12
2023-03-27T22:41:16.040Z,9.06
2023-03-27T22:43:42.944Z,9.07
2023-03-27T22:46:15.321Z,8.95
2023-03-27T22:48:43.419Z,8.94
2023-03-27T22:51:12.219Z,9.02
2023-03-27T22:53:39.896Z,8.92
2023-03-27T22:56:07.812Z,8.86
2023-03-27T22:58:34.769Z,8.89
2023-03-27T23:01:01.942Z,8.99
2023-03-27T23:03:29.173Z,8.90
2023-03-27T23:05:57.342Z,8.84
2023-03-27T23:08:29.651Z,8.92
2023-03-27T23:11:01.346Z,8.90
2023-03-27T23:13:30.075Z,8.72
2023-03-27T23:15:57.771Z,8.69
2023-03-27T23:18:25.479Z,8.68
2023-03-27T23:20:56.202Z,8.64
2023-03-27T23:23:24.012Z,8.53
2023-03-27T23:25:51.042Z,8.51
2023-03-27T23:28:18.240Z,8.56
2023-03-27T23:31:10.358Z,8.56
2023-03-27T23:33:40.077Z,8.51
2023-03-27T23:36:11.441Z,8.50
2023-03-27T23:38:39.121Z,8.52
2023-03-27T23:41:07.424Z,8.41
2023-03-27T23:43:35.002Z,8.29
2023-03-27T23:46:04.082Z,8.32
2023-03-27T23:48:31.936Z,8.30
2023-03-27T23:50:58.889Z,8.21
2023-03-27T23:53:27.263Z,8.19
2023-03-27T23:55:56.341Z,8.25
2023-03-27T23:58:24.243Z,8.17
